Home   Weather   Germany   Kehl   Past weeks
Flag for Germany

Past Weather in Kehl, Baden-Württemberg, Germany — Yesterday and Last 2 Weeks

Currently: 81 °F. Partly sunny. (Weather station: Strasbourg Airport, Germany). See more current weather

Past Weather in Kehl — Graph

°F

Kehl Temperature Yesterday

Maximum temperature yesterday: 79 °F (at 5:00 pm)
Minimum temperature yesterday: 57 °F (at 4:30 am)
Average temperature yesterday: 67 °F

High & Low Weather Summary for the Past Weeks

 TemperatureHumidityPressure
High90 °F (Jul 19, 4:00 pm)100% (Jul 11, 3:00 am)30.18 "Hg (Jul 11, 3:00 am)
Low52 °F (Jul 14, 5:00 am)35% (Jul 25, 6:30 pm)29.74 "Hg (Jul 20, 7:00 pm)
Average71 °F72%30.00 "Hg
* Reported Jul 10 6:00 pm — Jul 25 6:30 pm, Kehl. Weather by CustomWeather, © 2024

Note: Actual official high and low records may vary slightly from our data, if they occured in-between our weather recording intervals... More about our weather records

Kehl Weather History for the Previous 24 Hours

Scroll right to see more
 ConditionsComfort  
Time TempWeatherWind HumidityBarometerVisibility
6:30 pm
Thu, Jul 25
82 °FSunny.2 mph35%29.89 "Hg10 mi
6:00 pm82 °FPassing clouds.3 mph40%29.89 "HgN/A
5:30 pm81 °FSunny.2 mph42%29.92 "Hg10 mi
5:00 pm82 °FPassing clouds.5 mph42%29.92 "HgN/A
4:30 pm81 °FSunny.5 mph42%29.92 "Hg10 mi
4:00 pm81 °FSunny.2 mph42%29.92 "Hg10 mi
3:00 pm81 °FPassing clouds.5 mph45%29.95 "HgN/A
2:30 pm81 °FSunny.3 mph45%29.95 "Hg10 mi
2:00 pm77 °FSunny.3 mph47%29.95 "Hg10 mi
1:30 pm77 °FPassing clouds.3 mph51%29.98 "HgN/A
1:00 pm77 °FPassing clouds.7 mph51%29.98 "HgN/A
12:30 pm77 °FSunny.5 mph51%29.98 "Hg10 mi
12:00 pm77 °FPassing clouds.5 mph51%30.01 "HgN/A
11:30 am75 °FPassing clouds.5 mph54%30.01 "HgN/A
10:30 am72 °FPassing clouds.5 mph61%30.04 "HgN/A
10:00 am70 °FPassing clouds.6 mph64%30.04 "HgN/A
9:30 am68 °FPassing clouds.5 mph69%30.04 "HgN/A
9:00 am66 °FPassing clouds.5 mph73%30.04 "HgN/A
8:30 am64 °FPassing clouds.3 mph78%30.04 "HgN/A
8:00 am63 °FPassing clouds.5 mph77%30.04 "HgN/A
7:30 am61 °FSunny.2 mph83%30.04 "Hg10 mi
7:00 am57 °FSunny.3 mph88%30.04 "Hg10 mi
6:30 am55 °FSunny.5 mph94%30.04 "Hg10 mi
6:00 am55 °FSunny.3 mph94%30.04 "Hg10 mi
5:30 am55 °FClear.1 mph88%30.04 "Hg10 mi
5:00 am57 °FClear.2 mph88%30.04 "Hg10 mi
4:30 am57 °FClear.No wind88%30.04 "Hg10 mi
4:00 am57 °FClear.3 mph94%30.04 "Hg10 mi
3:30 am57 °FClear.1 mph94%30.07 "Hg10 mi
3:00 am59 °FClear.No wind88%30.07 "Hg10 mi
2:30 am61 °FClear.2 mph83%30.07 "Hg10 mi
2:00 am61 °FPassing clouds.No wind88%30.07 "HgN/A
1:30 am61 °FOvercast.2 mph83%30.09 "HgN/A
1:00 am61 °FPassing clouds.2 mph88%30.09 "HgN/A
12:30 am63 °FOvercast.3 mph83%30.09 "HgN/A
12:00 am61 °FPassing clouds.5 mph83%30.09 "HgN/A
11:00 pm
Wed, Jul 24
63 °FClear.1 mph77%30.09 "Hg10 mi
10:30 pm63 °FClear.6 mph77%30.09 "Hg10 mi
10:00 pm66 °FPassing clouds.5 mph68%30.09 "HgN/A
9:30 pm68 °FPassing clouds.6 mph64%30.09 "HgN/A
9:00 pm70 °FPartly sunny.7 mph60%30.09 "HgN/A
8:30 pm72 °FPassing clouds.6 mph61%30.09 "HgN/A
8:00 pm72 °FPassing clouds.7 mph57%30.09 "HgN/A
7:30 pm73 °FPassing clouds.7 mph57%30.07 "HgN/A
7:00 pm73 °FPartly sunny.7 mph57%30.07 "HgN/A
Weather by CustomWeather, © 2024

See weather overview